KAIO

Atlantic Municipal Airport

Atlantic, Iowa, USA
METAR KAIO 161855Z AUTO 06005KT 10SM OVC012 M07/M08 A3021 RMK AO2
Observed Flight Rules
Jan-16 @ 18:55 UTC (19 minutes ago) Marginal Visual Flight Rules
Wind Visibility Clouds
60° at 5 knots 10 miles
  • Overcast at 1,200' AGL
Temperatures Readings
Current -7°C / 19°F
Dewpoint -8°C / 18°F
Humidity 93%
Altimeter 30.21" Hg
Pressure 1023.02 hPa
Elevation 360
METAR KAIO 161855Z AUTO 06005KT 10SM OVC012 M07/M08 A3021 RMK AO2
Observed Flight Rules
Jan-16 @ 18:55 UTC
(19 minutes ago)
MVFR
Wind Visibility
60° at 5 knots 10 miles
Clouds
  • Overcast at 1,200' AGL
Temperature Dewpoint
-7°C / 19°F -8°C / 18°F
Humidity Altimeter Pressure
93% 30.21" Hg 1023.02 hPa